sensor_id;sensor_type;location;lat;lon;timestamp;P1;durP1;ratioP1;P2;durP2;ratioP2
68593;SDS011;55563;52.416;13.548;2023-08-31T00:00:40;3.15;;;2.47;;
68593;SDS011;55563;52.416;13.548;2023-08-31T00:02:42;2.72;;;2.17;;
68593;SDS011;55563;52.416;13.548;2023-08-31T00:04:43;2.72;;;2.53;;
68593;SDS011;55563;52.416;13.548;2023-08-31T00:06:44;2.83;;;2.53;;
68593;SDS011;55563;52.416;13.548;2023-08-31T00:08:47;2.50;;;2.30;;
68593;SDS011;55563;52.416;13.548;2023-08-31T00:13:04;2.80;;;2.53;;
68593;SDS011;55563;52.416;13.548;2023-08-31T00:15:06;2.47;;;2.28;;
68593;SDS011;55563;52.416;13.548;2023-08-31T00:17:09;2.90;;;2.65;;
68593;SDS011;55563;52.416;13.548;2023-08-31T00:19:10;2.65;;;1.85;;
68593;SDS011;55563;52.416;13.548;2023-08-31T00:21:10;2.97;;;2.65;;
68593;SDS011;55563;52.416;13.548;2023-08-31T00:23:11;2.78;;;2.53;;
68593;SDS011;55563;52.416;13.548;2023-08-31T00:25:12;2.67;;;2.45;;
68593;SDS011;55563;52.416;13.548;2023-08-31T00:27:13;4.07;;;2.80;;
68593;SDS011;55563;52.416;13.548;2023-08-31T00:29:17;2.70;;;2.50;;
68593;SDS011;55563;52.416;13.548;2023-08-31T00:31:18;3.00;;;2.70;;
68593;SDS011;55563;52.416;13.548;2023-08-31T00:33:18;2.97;;;2.70;;
68593;SDS011;55563;52.416;13.548;2023-08-31T00:35:19;2.72;;;2.53;;
68593;SDS011;55563;52.416;13.548;2023-08-31T00:37:20;2.78;;;2.58;;
68593;SDS011;55563;52.416;13.548;2023-08-31T00:39:21;3.38;;;2.75;;
68593;SDS011;55563;52.416;13.548;2023-08-31T00:41:22;2.88;;;2.65;;
68593;SDS011;55563;52.416;13.548;2023-08-31T00:43:25;3.55;;;2.83;;
68593;SDS011;55563;52.416;13.548;2023-08-31T00:45:25;4.47;;;2.50;;
68593;SDS011;55563;52.416;13.548;2023-08-31T00:47:26;3.13;;;2.83;;
68593;SDS011;55563;52.416;13.548;2023-08-31T00:49:27;3.08;;;2.78;;
68593;SDS011;55563;52.416;13.548;2023-08-31T00:53:29;3.53;;;2.50;;
68593;SDS011;55563;52.416;13.548;2023-08-31T00:55:30;2.72;;;2.50;;
68593;SDS011;55563;52.416;13.548;2023-08-31T00:57:32;3.00;;;2.80;;
68593;SDS011;55563;52.416;13.548;2023-08-31T00:59:33;2.95;;;2.72;;
68593;SDS011;55563;52.416;13.548;2023-08-31T01:01:36;2.53;;;2.30;;
68593;SDS011;55563;52.416;13.548;2023-08-31T01:09:11;3.40;;;3.10;;
68593;SDS011;55563;52.416;13.548;2023-08-31T01:11:31;3.33;;;3.03;;
68593;SDS011;55563;52.416;13.548;2023-08-31T01:13:47;3.20;;;2.90;;
68593;SDS011;55563;52.416;13.548;2023-08-31T01:15:58;3.10;;;2.80;;
68593;SDS011;55563;52.416;13.548;2023-08-31T01:18:04;3.97;;;2.88;;
68593;SDS011;55563;52.416;13.548;2023-08-31T01:20:08;3.13;;;2.83;;
68593;SDS011;55563;52.416;13.548;2023-08-31T01:24:55;2.63;;;2.42;;
68593;SDS011;55563;52.416;13.548;2023-08-31T01:26:57;3.20;;;2.90;;
68593;SDS011;55563;52.416;13.548;2023-08-31T01:28:58;3.67;;;2.97;;
68593;SDS011;55563;52.416;13.548;2023-08-31T01:31:03;2.80;;;2.60;;
68593;SDS011;55563;52.416;13.548;2023-08-31T01:33:06;2.80;;;2.60;;
68593;SDS011;55563;52.416;13.548;2023-08-31T01:35:07;2.78;;;2.58;;
68593;SDS011;55563;52.416;13.548;2023-08-31T01:37:16;2.95;;;2.75;;
68593;SDS011;55563;52.416;13.548;2023-08-31T01:39:35;2.67;;;2.47;;
68593;SDS011;55563;52.416;13.548;2023-08-31T01:41:44;3.15;;;2.85;;
68593;SDS011;55563;52.416;13.548;2023-08-31T01:43:49;3.15;;;2.55;;
68593;SDS011;55563;52.416;13.548;2023-08-31T01:45:53;2.53;;;2.30;;
68593;SDS011;55563;52.416;13.548;2023-08-31T01:47:54;2.70;;;2.50;;
68593;SDS011;55563;52.416;13.548;2023-08-31T01:49:56;2.75;;;2.45;;
68593;SDS011;55563;52.416;13.548;2023-08-31T01:51:58;2.65;;;2.45;;
68593;SDS011;55563;52.416;13.548;2023-08-31T01:53:59;2.30;;;2.10;;
68593;SDS011;55563;52.416;13.548;2023-08-31T01:56:00;2.42;;;2.22;;
68593;SDS011;55563;52.416;13.548;2023-08-31T01:58:00;2.30;;;2.10;;
68593;SDS011;55563;52.416;13.548;2023-08-31T02:02:15;1.73;;;1.40;;
68593;SDS011;55563;52.416;13.548;2023-08-31T02:04:15;1.60;;;1.40;;
68593;SDS011;55563;52.416;13.548;2023-08-31T02:06:16;2.15;;;1.83;;
68593;SDS011;55563;52.416;13.548;2023-08-31T02:08:17;1.52;;;1.35;;
68593;SDS011;55563;52.416;13.548;2023-08-31T02:10:18;2.05;;;1.48;;
68593;SDS011;55563;52.416;13.548;2023-08-31T02:12:21;1.70;;;1.60;;
68593;SDS011;55563;52.416;13.548;2023-08-31T02:14:21;1.70;;;1.60;;
68593;SDS011;55563;52.416;13.548;2023-08-31T02:16:22;1.65;;;1.40;;
68593;SDS011;55563;52.416;13.548;2023-08-31T02:18:24;1.73;;;1.40;;
68593;SDS011;55563;52.416;13.548;2023-08-31T02:20:24;1.60;;;1.48;;
68593;SDS011;55563;52.416;13.548;2023-08-31T02:22:27;2.17;;;1.50;;
68593;SDS011;55563;52.416;13.548;2023-08-31T02:24:27;2.17;;;1.38;;
68593;SDS011;55563;52.416;13.548;2023-08-31T02:26:28;1.85;;;1.60;;
68593;SDS011;55563;52.416;13.548;2023-08-31T02:28:28;1.85;;;1.63;;
68593;SDS011;55563;52.416;13.548;2023-08-31T02:30:31;1.50;;;1.40;;
68593;SDS011;55563;52.416;13.548;2023-08-31T02:32:31;1.58;;;1.30;;
68593;SDS011;55563;52.416;13.548;2023-08-31T02:34:33;2.20;;;1.60;;
68593;SDS011;55563;52.416;13.548;2023-08-31T02:36:34;2.10;;;1.42;;
68593;SDS011;55563;52.416;13.548;2023-08-31T02:38:34;1.80;;;1.40;;
68593;SDS011;55563;52.416;13.548;2023-08-31T02:40:35;1.40;;;1.30;;
68593;SDS011;55563;52.416;13.548;2023-08-31T02:42:35;1.35;;;1.25;;
68593;SDS011;55563;52.416;13.548;2023-08-31T02:44:36;1.23;;;1.10;;
68593;SDS011;55563;52.416;13.548;2023-08-31T02:46:37;2.08;;;1.63;;
68593;SDS011;55563;52.416;13.548;2023-08-31T02:48:37;1.23;;;1.10;;
68593;SDS011;55563;52.416;13.548;2023-08-31T02:50:39;1.40;;;1.30;;
68593;SDS011;55563;52.416;13.548;2023-08-31T02:52:39;1.30;;;1.20;;
68593;SDS011;55563;52.416;13.548;2023-08-31T02:54:40;1.00;;;0.90;;
68593;SDS011;55563;52.416;13.548;2023-08-31T02:56:41;1.85;;;1.10;;
68593;SDS011;55563;52.416;13.548;2023-08-31T02:58:42;1.30;;;1.00;;
68593;SDS011;55563;52.416;13.548;2023-08-31T03:00:43;1.20;;;0.98;;
68593;SDS011;55563;52.416;13.548;2023-08-31T03:02:46;1.42;;;1.00;;
68593;SDS011;55563;52.416;13.548;2023-08-31T03:04:47;1.40;;;1.27;;
68593;SDS011;55563;52.416;13.548;2023-08-31T03:06:47;1.30;;;1.08;;
68593;SDS011;55563;52.416;13.548;2023-08-31T03:08:48;1.20;;;0.95;;
68593;SDS011;55563;52.416;13.548;2023-08-31T03:10:49;1.52;;;0.90;;
68593;SDS011;55563;52.416;13.548;2023-08-31T03:12:49;1.20;;;1.10;;
68593;SDS011;55563;52.416;13.548;2023-08-31T03:14:50;1.10;;;1.00;;
68593;SDS011;55563;52.416;13.548;2023-08-31T03:16:52;1.65;;;1.10;;
68593;SDS011;55563;52.416;13.548;2023-08-31T03:18:52;1.40;;;1.20;;
68593;SDS011;55563;52.416;13.548;2023-08-31T03:20:54;1.20;;;1.10;;
68593;SDS011;55563;52.416;13.548;2023-08-31T03:22:56;1.02;;;0.93;;
68593;SDS011;55563;52.416;13.548;2023-08-31T03:24:58;1.10;;;1.00;;
68593;SDS011;55563;52.416;13.548;2023-08-31T03:26:59;1.30;;;1.20;;
68593;SDS011;55563;52.416;13.548;2023-08-31T03:29:00;1.02;;;0.93;;
68593;SDS011;55563;52.416;13.548;2023-08-31T03:31:01;1.40;;;1.17;;
68593;SDS011;55563;52.416;13.548;2023-08-31T03:33:02;2.25;;;1.40;;
68593;SDS011;55563;52.416;13.548;2023-08-31T03:35:03;1.55;;;1.20;;
68593;SDS011;55563;52.416;13.548;2023-08-31T03:37:04;1.52;;;1.10;;
68593;SDS011;55563;52.416;13.548;2023-08-31T03:39:07;1.38;;;1.20;;
68593;SDS011;55563;52.416;13.548;2023-08-31T03:41:07;1.40;;;1.20;;
68593;SDS011;55563;52.416;13.548;2023-08-31T03:43:08;1.58;;;1.10;;
68593;SDS011;55563;52.416;13.548;2023-08-31T03:47:11;1.10;;;0.90;;
68593;SDS011;55563;52.416;13.548;2023-08-31T03:49:11;1.98;;;1.33;;
68593;SDS011;55563;52.416;13.548;2023-08-31T03:51:12;1.40;;;1.20;;
68593;SDS011;55563;52.416;13.548;2023-08-31T03:53:12;1.48;;;1.08;;
68593;SDS011;55563;52.416;13.548;2023-08-31T03:55:13;1.42;;;1.10;;
68593;SDS011;55563;52.416;13.548;2023-08-31T03:57:14;1.52;;;1.20;;
68593;SDS011;55563;52.416;13.548;2023-08-31T03:59:16;1.33;;;1.17;;
68593;SDS011;55563;52.416;13.548;2023-08-31T04:01:16;1.17;;;1.02;;
68593;SDS011;55563;52.416;13.548;2023-08-31T04:03:18;1.23;;;1.00;;
68593;SDS011;55563;52.416;13.548;2023-08-31T04:05:18;1.27;;;1.08;;
68593;SDS011;55563;52.416;13.548;2023-08-31T04:07:19;1.50;;;1.10;;
68593;SDS011;55563;52.416;13.548;2023-08-31T04:09:20;1.27;;;1.17;;
68593;SDS011;55563;52.416;13.548;2023-08-31T04:11:21;1.70;;;1.20;;
68593;SDS011;55563;52.416;13.548;2023-08-31T04:13:22;1.50;;;1.10;;
68593;SDS011;55563;52.416;13.548;2023-08-31T04:15:22;6.90;;;1.63;;
68593;SDS011;55563;52.416;13.548;2023-08-31T04:17:23;1.75;;;1.20;;
68593;SDS011;55563;52.416;13.548;2023-08-31T04:19:24;1.23;;;1.10;;
68593;SDS011;55563;52.416;13.548;2023-08-31T04:21:24;1.70;;;1.20;;
68593;SDS011;55563;52.416;13.548;2023-08-31T04:23:25;1.90;;;1.20;;
68593;SDS011;55563;52.416;13.548;2023-08-31T04:25:28;1.20;;;1.10;;
68593;SDS011;55563;52.416;13.548;2023-08-31T04:27:29;1.92;;;1.40;;
68593;SDS011;55563;52.416;13.548;2023-08-31T04:29:33;1.45;;;1.15;;
68593;SDS011;55563;52.416;13.548;2023-08-31T04:31:33;2.75;;;1.35;;
68593;SDS011;55563;52.416;13.548;2023-08-31T04:33:34;1.27;;;1.17;;
68593;SDS011;55563;52.416;13.548;2023-08-31T04:37:36;1.67;;;1.27;;
68593;SDS011;55563;52.416;13.548;2023-08-31T04:39:36;1.88;;;1.30;;
68593;SDS011;55563;52.416;13.548;2023-08-31T04:41:37;1.80;;;1.40;;
68593;SDS011;55563;52.416;13.548;2023-08-31T04:43:37;3.00;;;1.38;;
68593;SDS011;55563;52.416;13.548;2023-08-31T04:45:39;1.35;;;1.25;;
68593;SDS011;55563;52.416;13.548;2023-08-31T04:47:43;1.92;;;1.25;;
68593;SDS011;55563;52.416;13.548;2023-08-31T04:49:44;1.30;;;1.10;;
68593;SDS011;55563;52.416;13.548;2023-08-31T04:51:45;1.88;;;1.40;;
68593;SDS011;55563;52.416;13.548;2023-08-31T04:53:46;1.65;;;1.30;;
68593;SDS011;55563;52.416;13.548;2023-08-31T04:55:47;2.25;;;1.30;;
68593;SDS011;55563;52.416;13.548;2023-08-31T04:57:47;1.60;;;1.50;;
68593;SDS011;55563;52.416;13.548;2023-08-31T04:59:48;2.15;;;1.40;;
68593;SDS011;55563;52.416;13.548;2023-08-31T05:01:48;1.50;;;1.30;;
68593;SDS011;55563;52.416;13.548;2023-08-31T05:03:49;1.60;;;1.20;;
68593;SDS011;55563;52.416;13.548;2023-08-31T05:05:50;1.70;;;1.40;;
68593;SDS011;55563;52.416;13.548;2023-08-31T05:07:50;2.30;;;1.50;;
68593;SDS011;55563;52.416;13.548;2023-08-31T05:09:51;1.65;;;1.25;;
68593;SDS011;55563;52.416;13.548;2023-08-31T05:11:52;1.83;;;1.42;;
68593;SDS011;55563;52.416;13.548;2023-08-31T05:13:53;2.42;;;1.50;;
68593;SDS011;55563;52.416;13.548;2023-08-31T05:15:53;1.77;;;1.25;;
68593;SDS011;55563;52.416;13.548;2023-08-31T05:17:54;1.90;;;1.42;;
68593;SDS011;55563;52.416;13.548;2023-08-31T05:19:55;2.33;;;1.60;;
68593;SDS011;55563;52.416;13.548;2023-08-31T05:21:55;1.83;;;1.50;;
68593;SDS011;55563;52.416;13.548;2023-08-31T05:23:56;2.00;;;1.50;;
68593;SDS011;55563;52.416;13.548;2023-08-31T05:25:57;2.20;;;1.83;;
68593;SDS011;55563;52.416;13.548;2023-08-31T05:29:59;2.08;;;1.30;;
68593;SDS011;55563;52.416;13.548;2023-08-31T05:32:00;1.92;;;1.48;;
68593;SDS011;55563;52.416;13.548;2023-08-31T05:34:00;3.08;;;1.73;;
68593;SDS011;55563;52.416;13.548;2023-08-31T05:36:01;3.10;;;1.63;;
68593;SDS011;55563;52.416;13.548;2023-08-31T05:38:04;1.85;;;1.50;;
68593;SDS011;55563;52.416;13.548;2023-08-31T05:40:04;2.17;;;1.58;;
68593;SDS011;55563;52.416;13.548;2023-08-31T05:42:10;2.78;;;1.63;;
68593;SDS011;55563;52.416;13.548;2023-08-31T05:44:11;2.05;;;1.60;;
68593;SDS011;55563;52.416;13.548;2023-08-31T05:46:11;2.15;;;1.70;;
68593;SDS011;55563;52.416;13.548;2023-08-31T05:48:12;2.30;;;1.80;;
68593;SDS011;55563;52.416;13.548;2023-08-31T05:50:12;2.72;;;1.85;;
68593;SDS011;55563;52.416;13.548;2023-08-31T05:52:13;2.58;;;1.80;;
68593;SDS011;55563;52.416;13.548;2023-08-31T05:54:14;3.38;;;1.73;;
68593;SDS011;55563;52.416;13.548;2023-08-31T05:56:14;2.85;;;1.80;;
68593;SDS011;55563;52.416;13.548;2023-08-31T05:58:15;2.13;;;1.77;;
68593;SDS011;55563;52.416;13.548;2023-08-31T06:00:16;2.53;;;1.85;;
68593;SDS011;55563;52.416;13.548;2023-08-31T06:02:18;3.33;;;2.17;;
68593;SDS011;55563;52.416;13.548;2023-08-31T06:04:18;2.63;;;1.80;;
68593;SDS011;55563;52.416;13.548;2023-08-31T06:06:19;3.47;;;1.80;;
68593;SDS011;55563;52.416;13.548;2023-08-31T06:08:20;3.55;;;1.75;;
68593;SDS011;55563;52.416;13.548;2023-08-31T06:10:20;2.10;;;1.70;;
68593;SDS011;55563;52.416;13.548;2023-08-31T06:12:23;3.58;;;1.73;;
68593;SDS011;55563;52.416;13.548;2023-08-31T06:14:24;3.08;;;1.90;;
68593;SDS011;55563;52.416;13.548;2023-08-31T06:16:24;2.85;;;2.17;;
68593;SDS011;55563;52.416;13.548;2023-08-31T06:18:25;3.03;;;2.10;;
68593;SDS011;55563;52.416;13.548;2023-08-31T06:20:26;2.20;;;1.70;;
68593;SDS011;55563;52.416;13.548;2023-08-31T06:22:27;4.03;;;2.33;;
68593;SDS011;55563;52.416;13.548;2023-08-31T06:24:28;2.83;;;1.75;;
68593;SDS011;55563;52.416;13.548;2023-08-31T06:26:28;3.28;;;1.80;;
68593;SDS011;55563;52.416;13.548;2023-08-31T06:28:29;2.55;;;2.05;;
68593;SDS011;55563;52.416;13.548;2023-08-31T06:30:30;2.85;;;1.90;;
68593;SDS011;55563;52.416;13.548;2023-08-31T06:32:30;2.15;;;1.75;;
68593;SDS011;55563;52.416;13.548;2023-08-31T06:34:31;3.05;;;2.00;;
68593;SDS011;55563;52.416;13.548;2023-08-31T06:36:31;2.92;;;1.83;;
68593;SDS011;55563;52.416;13.548;2023-08-31T06:38:32;2.55;;;1.90;;
68593;SDS011;55563;52.416;13.548;2023-08-31T06:40:33;2.80;;;1.83;;
68593;SDS011;55563;52.416;13.548;2023-08-31T06:42:34;3.28;;;2.05;;
68593;SDS011;55563;52.416;13.548;2023-08-31T06:44:35;3.03;;;2.00;;
68593;SDS011;55563;52.416;13.548;2023-08-31T06:46:36;3.85;;;2.40;;
68593;SDS011;55563;52.416;13.548;2023-08-31T06:48:38;3.00;;;2.10;;
68593;SDS011;55563;52.416;13.548;2023-08-31T06:50:39;2.33;;;1.73;;
68593;SDS011;55563;52.416;13.548;2023-08-31T06:52:39;3.55;;;2.00;;
68593;SDS011;55563;52.416;13.548;2023-08-31T06:54:41;2.63;;;1.88;;
68593;SDS011;55563;52.416;13.548;2023-08-31T06:56:42;2.60;;;1.48;;
68593;SDS011;55563;52.416;13.548;2023-08-31T06:58:43;2.78;;;1.98;;
68593;SDS011;55563;52.416;13.548;2023-08-31T07:00:44;3.55;;;2.30;;
68593;SDS011;55563;52.416;13.548;2023-08-31T07:02:44;2.90;;;2.13;;
68593;SDS011;55563;52.416;13.548;2023-08-31T07:04:45;3.28;;;2.20;;
68593;SDS011;55563;52.416;13.548;2023-08-31T07:06:46;3.13;;;1.92;;
68593;SDS011;55563;52.416;13.548;2023-08-31T07:08:47;3.50;;;2.15;;
68593;SDS011;55563;52.416;13.548;2023-08-31T07:10:50;4.50;;;3.17;;
68593;SDS011;55563;52.416;13.548;2023-08-31T07:12:50;6.30;;;3.58;;
68593;SDS011;55563;52.416;13.548;2023-08-31T07:14:51;3.75;;;2.45;;
68593;SDS011;55563;52.416;13.548;2023-08-31T07:16:52;3.38;;;2.47;;
68593;SDS011;55563;52.416;13.548;2023-08-31T07:18:53;4.28;;;2.40;;
68593;SDS011;55563;52.416;13.548;2023-08-31T07:20:54;3.88;;;2.10;;
68593;SDS011;55563;52.416;13.548;2023-08-31T07:22:55;5.47;;;2.50;;
68593;SDS011;55563;52.416;13.548;2023-08-31T07:24:55;3.25;;;2.20;;
68593;SDS011;55563;52.416;13.548;2023-08-31T07:26:56;2.88;;;2.13;;
68593;SDS011;55563;52.416;13.548;2023-08-31T07:28:56;3.22;;;2.15;;
68593;SDS011;55563;52.416;13.548;2023-08-31T07:31:01;3.17;;;2.13;;
68593;SDS011;55563;52.416;13.548;2023-08-31T07:33:03;3.55;;;1.98;;
68593;SDS011;55563;52.416;13.548;2023-08-31T07:35:04;3.50;;;2.35;;
68593;SDS011;55563;52.416;13.548;2023-08-31T07:37:05;3.63;;;2.35;;
68593;SDS011;55563;52.416;13.548;2023-08-31T07:39:06;4.60;;;2.50;;
68593;SDS011;55563;52.416;13.548;2023-08-31T07:41:07;3.75;;;2.30;;
68593;SDS011;55563;52.416;13.548;2023-08-31T07:43:08;3.85;;;2.00;;
68593;SDS011;55563;52.416;13.548;2023-08-31T07:45:08;2.90;;;2.10;;
68593;SDS011;55563;52.416;13.548;2023-08-31T07:47:10;3.40;;;2.28;;
68593;SDS011;55563;52.416;13.548;2023-08-31T07:49:10;3.20;;;2.30;;
68593;SDS011;55563;52.416;13.548;2023-08-31T07:51:11;3.83;;;2.40;;
68593;SDS011;55563;52.416;13.548;2023-08-31T07:53:12;3.83;;;2.13;;
68593;SDS011;55563;52.416;13.548;2023-08-31T07:55:13;5.03;;;2.53;;
68593;SDS011;55563;52.416;13.548;2023-08-31T07:57:14;3.60;;;2.42;;
68593;SDS011;55563;52.416;13.548;2023-08-31T07:59:16;4.25;;;2.50;;
68593;SDS011;55563;52.416;13.548;2023-08-31T08:01:17;4.53;;;2.22;;
68593;SDS011;55563;52.416;13.548;2023-08-31T08:03:18;4.45;;;2.80;;
68593;SDS011;55563;52.416;13.548;2023-08-31T08:05:19;3.28;;;2.13;;
68593;SDS011;55563;52.416;13.548;2023-08-31T08:07:19;3.78;;;2.53;;
68593;SDS011;55563;52.416;13.548;2023-08-31T08:09:20;4.65;;;2.42;;
68593;SDS011;55563;52.416;13.548;2023-08-31T08:11:22;3.53;;;2.55;;
68593;SDS011;55563;52.416;13.548;2023-08-31T08:13:22;3.25;;;2.40;;
68593;SDS011;55563;52.416;13.548;2023-08-31T08:15:23;4.13;;;2.63;;
68593;SDS011;55563;52.416;13.548;2023-08-31T08:17:24;4.30;;;2.50;;
68593;SDS011;55563;52.416;13.548;2023-08-31T08:19:25;4.03;;;2.60;;
68593;SDS011;55563;52.416;13.548;2023-08-31T08:21:25;5.30;;;2.40;;
68593;SDS011;55563;52.416;13.548;2023-08-31T08:23:26;3.42;;;2.28;;
68593;SDS011;55563;52.416;13.548;2023-08-31T08:25:27;3.90;;;2.38;;
68593;SDS011;55563;52.416;13.548;2023-08-31T08:27:27;3.88;;;2.35;;
68593;SDS011;55563;52.416;13.548;2023-08-31T08:29:28;3.05;;;2.42;;
68593;SDS011;55563;52.416;13.548;2023-08-31T08:31:28;3.47;;;2.38;;
68593;SDS011;55563;52.416;13.548;2023-08-31T08:33:30;4.25;;;2.60;;
68593;SDS011;55563;52.416;13.548;2023-08-31T08:35:31;3.97;;;2.40;;
68593;SDS011;55563;52.416;13.548;2023-08-31T08:37:31;4.72;;;3.15;;
68593;SDS011;55563;52.416;13.548;2023-08-31T08:39:33;3.38;;;2.30;;
68593;SDS011;55563;52.416;13.548;2023-08-31T08:41:34;4.28;;;2.67;;
68593;SDS011;55563;52.416;13.548;2023-08-31T08:43:36;3.92;;;2.30;;
68593;SDS011;55563;52.416;13.548;2023-08-31T08:45:39;3.72;;;2.20;;
68593;SDS011;55563;52.416;13.548;2023-08-31T08:47:42;4.50;;;2.20;;
68593;SDS011;55563;52.416;13.548;2023-08-31T08:49:44;3.90;;;1.95;;
68593;SDS011;55563;52.416;13.548;2023-08-31T08:51:46;2.60;;;1.90;;
68593;SDS011;55563;52.416;13.548;2023-08-31T08:53:47;3.22;;;1.85;;
68593;SDS011;55563;52.416;13.548;2023-08-31T08:55:51;3.45;;;1.90;;
68593;SDS011;55563;52.416;13.548;2023-08-31T08:57:57;2.15;;;1.70;;
68593;SDS011;55563;52.416;13.548;2023-08-31T09:00:00;2.60;;;1.52;;
68593;SDS011;55563;52.416;13.548;2023-08-31T09:02:00;1.75;;;1.60;;
68593;SDS011;55563;52.416;13.548;2023-08-31T09:04:01;2.08;;;1.88;;
68593;SDS011;55563;52.416;13.548;2023-08-31T09:06:02;2.80;;;1.67;;
68593;SDS011;55563;52.416;13.548;2023-08-31T09:08:05;3.17;;;1.65;;
68593;SDS011;55563;52.416;13.548;2023-08-31T09:10:10;2.85;;;1.77;;
68593;SDS011;55563;52.416;13.548;2023-08-31T09:12:11;4.22;;;1.70;;
68593;SDS011;55563;52.416;13.548;2023-08-31T09:14:13;2.13;;;1.83;;
68593;SDS011;55563;52.416;13.548;2023-08-31T09:16:23;2.33;;;1.77;;
68593;SDS011;55563;52.416;13.548;2023-08-31T09:18:30;2.15;;;1.55;;
68593;SDS011;55563;52.416;13.548;2023-08-31T09:20:42;2.85;;;1.45;;
68593;SDS011;55563;52.416;13.548;2023-08-31T09:22:45;1.95;;;1.50;;
68593;SDS011;55563;52.416;13.548;2023-08-31T09:24:45;1.90;;;1.50;;
68593;SDS011;55563;52.416;13.548;2023-08-31T09:26:47;1.52;;;1.30;;
68593;SDS011;55563;52.416;13.548;2023-08-31T09:28:50;2.75;;;1.40;;
68593;SDS011;55563;52.416;13.548;2023-08-31T09:30:52;2.20;;;1.38;;
68593;SDS011;55563;52.416;13.548;2023-08-31T09:33:03;1.70;;;1.30;;
68593;SDS011;55563;52.416;13.548;2023-08-31T09:35:08;2.22;;;1.30;;
68593;SDS011;55563;52.416;13.548;2023-08-31T09:37:09;1.85;;;1.33;;
68593;SDS011;55563;52.416;13.548;2023-08-31T09:39:10;1.58;;;1.45;;
68593;SDS011;55563;52.416;13.548;2023-08-31T09:41:12;3.05;;;1.20;;
68593;SDS011;55563;52.416;13.548;2023-08-31T09:43:20;1.83;;;1.10;;
68593;SDS011;55563;52.416;13.548;2023-08-31T09:45:28;1.38;;;1.08;;
68593;SDS011;55563;52.416;13.548;2023-08-31T09:47:32;1.77;;;1.00;;
68593;SDS011;55563;52.416;13.548;2023-08-31T09:49:33;2.38;;;1.23;;
68593;SDS011;55563;52.416;13.548;2023-08-31T09:51:35;1.13;;;1.00;;
68593;SDS011;55563;52.416;13.548;2023-08-31T09:53:39;1.70;;;1.10;;
68593;SDS011;55563;52.416;13.548;2023-08-31T09:55:42;1.60;;;1.48;;
68593;SDS011;55563;52.416;13.548;2023-08-31T09:57:43;2.35;;;1.10;;
68593;SDS011;55563;52.416;13.548;2023-08-31T09:59:45;1.55;;;1.00;;
68593;SDS011;55563;52.416;13.548;2023-08-31T10:03:47;1.30;;;1.20;;
68593;SDS011;55563;52.416;13.548;2023-08-31T10:05:48;1.88;;;1.10;;
68593;SDS011;55563;52.416;13.548;2023-08-31T10:07:50;1.73;;;1.17;;
68593;SDS011;55563;52.416;13.548;2023-08-31T10:09:52;1.33;;;1.20;;
68593;SDS011;55563;52.416;13.548;2023-08-31T10:11:53;3.22;;;1.40;;
68593;SDS011;55563;52.416;13.548;2023-08-31T10:13:54;2.15;;;1.05;;
68593;SDS011;55563;52.416;13.548;2023-08-31T10:15:55;1.23;;;1.00;;
68593;SDS011;55563;52.416;13.548;2023-08-31T10:17:56;1.25;;;1.00;;
68593;SDS011;55563;52.416;13.548;2023-08-31T10:19:58;2.20;;;1.00;;
68593;SDS011;55563;52.416;13.548;2023-08-31T10:21:59;1.55;;;0.90;;
68593;SDS011;55563;52.416;13.548;2023-08-31T10:24:02;1.73;;;1.10;;
68593;SDS011;55563;52.416;13.548;2023-08-31T10:26:22;1.10;;;0.93;;
68593;SDS011;55563;52.416;13.548;2023-08-31T10:28:27;0.90;;;0.90;;
68593;SDS011;55563;52.416;13.548;2023-08-31T10:30:28;1.08;;;0.90;;
68593;SDS011;55563;52.416;13.548;2023-08-31T10:32:29;1.20;;;0.90;;
68593;SDS011;55563;52.416;13.548;2023-08-31T10:34:34;0.80;;;0.80;;
68593;SDS011;55563;52.416;13.548;2023-08-31T10:36:39;1.75;;;1.10;;
68593;SDS011;55563;52.416;13.548;2023-08-31T10:38:45;1.23;;;0.80;;
68593;SDS011;55563;52.416;13.548;2023-08-31T10:43:21;0.90;;;0.70;;
68593;SDS011;55563;52.416;13.548;2023-08-31T10:45:24;1.35;;;0.85;;
68593;SDS011;55563;52.416;13.548;2023-08-31T10:47:36;0.90;;;0.88;;
68593;SDS011;55563;52.416;13.548;2023-08-31T10:49:38;1.60;;;1.00;;
68593;SDS011;55563;52.416;13.548;2023-08-31T10:51:39;0.77;;;0.77;;
68593;SDS011;55563;52.416;13.548;2023-08-31T10:53:41;1.02;;;1.02;;
68593;SDS011;55563;52.416;13.548;2023-08-31T10:55:50;1.60;;;0.93;;
68593;SDS011;55563;52.416;13.548;2023-08-31T10:57:52;0.77;;;0.77;;
68593;SDS011;55563;52.416;13.548;2023-08-31T10:59:53;1.23;;;0.75;;
68593;SDS011;55563;52.416;13.548;2023-08-31T11:01:56;1.40;;;0.80;;
68593;SDS011;55563;52.416;13.548;2023-08-31T11:03:58;1.05;;;0.88;;
68593;SDS011;55563;52.416;13.548;2023-08-31T11:05:59;0.63;;;0.63;;
68593;SDS011;55563;52.416;13.548;2023-08-31T11:08:00;0.98;;;0.70;;
68593;SDS011;55563;52.416;13.548;2023-08-31T11:10:31;0.63;;;0.63;;
68593;SDS011;55563;52.416;13.548;2023-08-31T11:12:23;1.10;;;0.70;;
68593;SDS011;55563;52.416;13.548;2023-08-31T11:14:24;0.80;;;0.70;;
68593;SDS011;55563;52.416;13.548;2023-08-31T11:16:25;0.98;;;0.65;;
68593;SDS011;55563;52.416;13.548;2023-08-31T11:18:25;0.85;;;0.63;;
68593;SDS011;55563;52.416;13.548;2023-08-31T11:22:28;1.25;;;0.82;;
68593;SDS011;55563;52.416;13.548;2023-08-31T11:24:29;0.70;;;0.70;;
68593;SDS011;55563;52.416;13.548;2023-08-31T11:26:31;0.75;;;0.65;;
68593;SDS011;55563;52.416;13.548;2023-08-31T11:28:33;0.63;;;0.63;;
68593;SDS011;55563;52.416;13.548;2023-08-31T11:30:34;0.90;;;0.80;;
68593;SDS011;55563;52.416;13.548;2023-08-31T11:32:36;1.50;;;0.73;;
68593;SDS011;55563;52.416;13.548;2023-08-31T11:34:41;0.75;;;0.75;;
68593;SDS011;55563;52.416;13.548;2023-08-31T11:36:44;1.05;;;0.95;;
68593;SDS011;55563;52.416;13.548;2023-08-31T11:38:48;1.00;;;0.90;;
68593;SDS011;55563;52.416;13.548;2023-08-31T11:40:49;0.70;;;0.70;;
68593;SDS011;55563;52.416;13.548;2023-08-31T11:42:56;1.27;;;1.02;;
68593;SDS011;55563;52.416;13.548;2023-08-31T11:44:58;2.05;;;0.95;;
68593;SDS011;55563;52.416;13.548;2023-08-31T11:46:59;1.00;;;0.88;;
68593;SDS011;55563;52.416;13.548;2023-08-31T11:49:00;0.88;;;0.85;;
68593;SDS011;55563;52.416;13.548;2023-08-31T11:53:03;1.25;;;1.15;;
68593;SDS011;55563;52.416;13.548;2023-08-31T11:57:10;1.13;;;1.05;;
68593;SDS011;55563;52.416;13.548;2023-08-31T11:59:11;0.90;;;0.90;;
68593;SDS011;55563;52.416;13.548;2023-08-31T12:01:17;0.98;;;0.95;;
68593;SDS011;55563;52.416;13.548;2023-08-31T12:03:20;1.00;;;0.80;;
68593;SDS011;55563;52.416;13.548;2023-08-31T12:05:21;1.83;;;1.23;;
68593;SDS011;55563;52.416;13.548;2023-08-31T12:07:22;6.20;;;4.47;;
68593;SDS011;55563;52.416;13.548;2023-08-31T12:09:22;1.10;;;1.00;;
68593;SDS011;55563;52.416;13.548;2023-08-31T12:11:24;1.10;;;1.00;;
68593;SDS011;55563;52.416;13.548;2023-08-31T12:13:25;1.35;;;1.25;;
68593;SDS011;55563;52.416;13.548;2023-08-31T12:15:30;0.90;;;0.90;;
68593;SDS011;55563;52.416;13.548;2023-08-31T12:17:31;0.90;;;0.90;;
68593;SDS011;55563;52.416;13.548;2023-08-31T12:19:32;1.13;;;0.90;;
68593;SDS011;55563;52.416;13.548;2023-08-31T12:21:33;0.93;;;0.93;;
68593;SDS011;55563;52.416;13.548;2023-08-31T12:23:34;1.17;;;1.08;;
68593;SDS011;55563;52.416;13.548;2023-08-31T12:25:35;1.10;;;1.00;;
68593;SDS011;55563;52.416;13.548;2023-08-31T12:27:35;1.05;;;0.95;;
68593;SDS011;55563;52.416;13.548;2023-08-31T12:29:36;0.88;;;0.88;;
68593;SDS011;55563;52.416;13.548;2023-08-31T12:31:37;1.15;;;0.90;;
68593;SDS011;55563;52.416;13.548;2023-08-31T12:33:37;1.88;;;1.10;;